createdAt,value
2024-02-23T00:00:09.345Z,98879.34
2024-02-23T00:05:31.316Z,98884.13
2024-02-23T00:10:53.273Z,98889.72
2024-02-23T00:16:15.261Z,98903.69
2024-02-23T00:21:41.105Z,98903.44
2024-02-23T00:27:03.350Z,98917.38
2024-02-23T00:32:25.266Z,98910.75
2024-02-23T00:37:47.230Z,98926.84
2024-02-23T00:43:09.229Z,98932.47
2024-02-23T00:48:31.418Z,98938.91
2024-02-23T00:53:53.734Z,98943.06
2024-02-23T00:59:15.797Z,98942.53
2024-02-23T01:04:37.619Z,98962.53
2024-02-23T01:10:00.358Z,98959.50
2024-02-23T01:15:22.353Z,98973.97
2024-02-23T01:20:44.530Z,98968.19
2024-02-23T01:26:06.717Z,98983.44
2024-02-23T01:31:28.744Z,98974.59
2024-02-23T01:36:50.677Z,98985.44
2024-02-23T01:42:12.515Z,98970.53
2024-02-23T01:47:34.710Z,98971.13
2024-02-23T01:53:01.642Z,98979.16
2024-02-23T01:58:23.786Z,98974.47
2024-02-23T02:03:45.953Z,98976.72
2024-02-23T02:09:08.038Z,98978.97
2024-02-23T02:14:32.807Z,98975.66
2024-02-23T02:19:55.885Z,98975.41
2024-02-23T02:25:17.834Z,98974.03
2024-02-23T02:30:39.739Z,98982.94
2024-02-23T02:36:01.750Z,98980.44
2024-02-23T02:41:25.900Z,98983.50
2024-02-23T02:46:47.983Z,98992.41
2024-02-23T02:52:10.110Z,98993.50
2024-02-23T02:57:31.979Z,98992.97
2024-02-23T03:02:54.387Z,98998.00
2024-02-23T03:08:16.393Z,98993.03
2024-02-23T03:13:38.275Z,98996.91
2024-02-23T03:19:00.172Z,98989.72
2024-02-23T03:24:22.199Z,98987.53
2024-02-23T03:29:44.122Z,98977.56
2024-02-23T03:35:08.380Z,98975.94
2024-02-23T03:40:30.234Z,98982.03
2024-02-23T03:45:52.131Z,98982.63
2024-02-23T03:51:14.151Z,98981.81
2024-02-23T03:56:43.212Z,98980.97
2024-02-23T04:02:05.848Z,98983.78
2024-02-23T04:07:27.780Z,98984.91
2024-02-23T04:12:49.788Z,98988.78
2024-02-23T04:18:11.738Z,98979.94
2024-02-23T04:23:33.675Z,98981.03
2024-02-23T04:28:55.677Z,98979.41
2024-02-23T04:34:17.878Z,98967.78
2024-02-23T04:39:43.087Z,98979.97
2024-02-23T04:45:05.545Z,98971.97
2024-02-23T04:50:27.638Z,98986.09
2024-02-23T04:55:49.608Z,98984.72
2024-02-23T05:01:12.192Z,98988.31
2024-02-23T05:06:34.424Z,98987.78
2024-02-23T05:11:56.621Z,98988.88
2024-02-23T05:17:19.013Z,98986.41
2024-02-23T05:22:41.856Z,98994.16
2024-02-23T05:28:04.232Z,98996.09
2024-02-23T05:33:26.686Z,98990.00
2024-02-23T05:38:48.602Z,98983.66
2024-02-23T05:44:10.706Z,98989.19
2024-02-23T05:49:32.784Z,98968.50
2024-02-23T05:54:57.302Z,98966.84
2024-02-23T06:00:22.992Z,98969.06
2024-02-23T06:05:44.774Z,98979.00
2024-02-23T06:11:07.108Z,98974.00
2024-02-23T06:16:29.700Z,98972.34
2024-02-23T06:21:51.552Z,98983.41
2024-02-23T06:27:13.457Z,98962.41
2024-02-23T06:32:35.916Z,98963.25
2024-02-23T06:37:58.242Z,98958.53
2024-02-23T06:43:23.159Z,98966.81
2024-02-23T06:48:47.259Z,98969.59
2024-02-23T06:54:09.851Z,98967.94
2024-02-23T06:59:31.906Z,98969.59
2024-02-23T07:04:56.102Z,98975.13
2024-02-23T07:10:19.539Z,98979.84
2024-02-23T07:15:41.420Z,98977.06
2024-02-23T07:21:03.359Z,98980.66
2024-02-23T07:26:25.487Z,98970.69
2024-02-23T07:31:47.471Z,98975.13
2024-02-23T07:37:10.719Z,98973.47
2024-02-23T07:42:33.784Z,98969.88
2024-02-23T07:47:55.881Z,98956.34
2024-02-23T07:53:17.798Z,98956.63
2024-02-23T07:58:39.710Z,98955.81
2024-02-23T08:04:01.624Z,98958.03
2024-02-23T08:09:24.194Z,98951.66
2024-02-23T08:14:47.041Z,98956.38
2024-02-23T08:20:09.777Z,98955.84
2024-02-23T08:25:31.795Z,98948.66
2024-02-23T08:30:54.583Z,98949.75
2024-02-23T08:36:19.692Z,98954.47
2024-02-23T08:41:41.674Z,98956.41
2024-02-23T08:47:04.037Z,98966.91
2024-02-23T08:52:26.871Z,98963.34
2024-02-23T08:57:49.185Z,98971.63
2024-02-23T09:03:11.130Z,98975.81
2024-02-23T09:08:33.091Z,98979.66
2024-02-23T09:13:55.188Z,98984.34
2024-02-23T09:19:17.819Z,98977.47
2024-02-23T09:24:43.211Z,98978.31
2024-02-23T09:30:05.907Z,98982.19
2024-02-23T09:35:28.152Z,98975.81
2024-02-23T09:40:51.204Z,98989.38
2024-02-23T09:46:13.980Z,98987.72
2024-02-23T09:51:37.557Z,98997.94
2024-02-23T09:56:59.537Z,99004.28
2024-02-23T10:02:22.360Z,99011.75
2024-02-23T10:07:45.812Z,99001.78
2024-02-23T10:13:07.832Z,99009.28
2024-02-23T10:18:29.958Z,99002.91
2024-02-23T10:23:52.788Z,99015.91
2024-02-23T10:29:17.468Z,99013.16
2024-02-23T10:34:45.311Z,99017.81
2024-02-23T10:40:10.732Z,99016.16
2024-02-23T10:45:33.232Z,99009.84
2024-02-23T10:50:56.594Z,99015.06
2024-02-23T10:56:18.727Z,99018.13
2024-02-23T11:01:41.634Z,99018.94
2024-02-23T11:07:09.050Z,99019.22
2024-02-23T11:12:31.386Z,99012.59
2024-02-23T11:17:53.365Z,99021.19
2024-02-23T11:23:16.679Z,99021.19
2024-02-23T11:28:45.471Z,99021.19
2024-02-23T11:34:10.003Z,99025.06
2024-02-23T11:39:32.350Z,99026.97
2024-02-23T11:44:57.270Z,99030.59
2024-02-23T11:50:22.245Z,99033.88
2024-02-23T11:55:44.549Z,99035.81
2024-02-23T12:01:08.384Z,99034.16
2024-02-23T12:06:32.189Z,99035.00
2024-02-23T12:11:54.903Z,99028.63
2024-02-23T12:17:16.870Z,99044.41
2024-02-23T12:22:38.762Z,99053.78
2024-02-23T12:28:01.650Z,99048.25
2024-02-23T12:33:23.704Z,99043.84
2024-02-23T12:38:45.819Z,99047.72
2024-02-23T12:44:07.878Z,99046.91
2024-02-23T12:49:29.935Z,99051.59
2024-02-23T12:54:52.864Z,99055.47
2024-02-23T13:00:15.680Z,99046.63
2024-02-23T13:05:37.606Z,99046.63
2024-02-23T13:10:59.641Z,99043.03
2024-02-23T13:16:21.713Z,99033.91
2024-02-23T13:21:43.880Z,99035.00
2024-02-23T13:27:06.004Z,99042.19
2024-02-23T13:32:28.133Z,99033.91
2024-02-23T13:37:50.851Z,99041.38
2024-02-23T13:43:13.869Z,99036.66
2024-02-23T13:48:38.226Z,99044.97
2024-02-23T13:54:00.528Z,99048.84
2024-02-23T13:59:22.912Z,99043.31
2024-02-23T14:04:46.669Z,99036.97
2024-02-23T14:10:09.450Z,99037.25
2024-02-23T14:15:31.382Z,99028.97
2024-02-23T14:20:53.910Z,99025.09
2024-02-23T14:26:16.084Z,99029.78
2024-02-23T14:31:37.983Z,99033.66
2024-02-23T14:36:59.874Z,99033.66
2024-02-23T14:42:21.799Z,99031.19
2024-02-23T14:47:46.563Z,99040.28
2024-02-23T14:53:10.093Z,99039.72
2024-02-23T14:58:32.098Z,99036.72
2024-02-23T15:03:54.079Z,99035.06
2024-02-23T15:09:16.217Z,99036.16
2024-02-23T15:14:38.375Z,99037.25
2024-02-23T15:20:00.472Z,99035.59
2024-02-23T15:25:22.593Z,99036.16
2024-02-23T15:30:44.624Z,99039.47
2024-02-23T15:36:10.124Z,99046.66
2024-02-23T15:41:33.163Z,99054.69
2024-02-23T15:46:55.221Z,99046.41
2024-02-23T15:52:17.457Z,99052.75
2024-02-23T15:57:40.505Z,99050.25
2024-02-23T16:03:02.455Z,99045.25
2024-02-23T16:08:42.815Z,99058.09
2024-02-23T16:14:06.499Z,99049.66
2024-02-23T16:19:28.414Z,99051.69
2024-02-23T16:24:50.386Z,99046.22
2024-02-23T16:30:12.744Z,99035.28
2024-02-23T16:35:34.691Z,99041.00
2024-02-23T16:40:56.787Z,99042.91
2024-02-23T16:46:18.927Z,99049.00
2024-02-23T16:51:41.458Z,99044.34
2024-02-23T16:57:03.404Z,99044.13
2024-02-23T17:02:25.298Z,99056.88
2024-02-23T17:07:47.148Z,99055.84
2024-02-23T17:13:09.015Z,99068.03
2024-02-23T17:18:30.917Z,99078.03
2024-02-23T17:23:52.934Z,99086.38
2024-02-23T17:29:14.829Z,99089.78
2024-02-23T17:34:37.035Z,99096.41
2024-02-23T17:39:59.010Z,99106.88
2024-02-23T17:45:20.899Z,99118.44
2024-02-23T17:50:42.888Z,99123.41
2024-02-23T17:56:05.307Z,99124.44
2024-02-23T18:01:27.345Z,99130.44
2024-02-23T18:06:51.880Z,99139.94
2024-02-23T18:12:13.879Z,99131.38
2024-02-23T18:17:35.882Z,99138.69
2024-02-23T18:23:00.882Z,99132.13
2024-02-23T18:28:23.274Z,99142.28
2024-02-23T18:33:45.509Z,99134.13
2024-02-23T18:39:08.679Z,99129.94
2024-02-23T18:44:30.668Z,99132.94
2024-02-23T18:49:52.719Z,99126.56
2024-02-23T18:55:14.629Z,99124.63
2024-02-23T19:00:36.582Z,99124.84
2024-02-23T19:05:58.581Z,99132.63
2024-02-23T19:11:20.676Z,99144.88
2024-02-23T19:16:44.529Z,99142.91
2024-02-23T19:22:06.625Z,99143.22
2024-02-23T19:27:28.531Z,99139.91
2024-02-23T19:32:50.671Z,99154.91
2024-02-23T19:38:12.640Z,99161.56
2024-02-23T19:43:34.532Z,99204.59
2024-02-23T19:48:57.200Z,99217.63
2024-02-23T19:54:19.079Z,99210.44
2024-02-23T19:59:41.536Z,99217.63
2024-02-23T20:05:04.777Z,99230.97
2024-02-23T20:10:26.962Z,99208.53
2024-02-23T20:15:49.259Z,99231.63
2024-02-23T20:21:11.155Z,99238.59
2024-02-23T20:26:33.176Z,99229.97
2024-02-23T20:31:55.892Z,99232.00
2024-02-23T20:37:17.973Z,99226.66
2024-02-23T20:42:40.394Z,99230.56
2024-02-23T20:48:02.403Z,99239.44
2024-02-23T20:53:24.411Z,99236.66
2024-02-23T20:58:46.450Z,99235.03
2024-02-23T21:04:08.317Z,99233.63
2024-02-23T21:09:30.206Z,99238.53
2024-02-23T21:14:53.101Z,99232.44
2024-02-23T21:20:15.197Z,99245.59
2024-02-23T21:25:37.422Z,99247.41
2024-02-23T21:31:05.324Z,99246.16
2024-02-23T21:36:27.415Z,99240.94
2024-02-23T21:41:49.542Z,99239.66
2024-02-23T21:47:11.568Z,99236.50
2024-02-23T21:52:35.810Z,99251.66
2024-02-23T21:57:57.768Z,99254.88
2024-02-23T22:03:20.738Z,99258.09
2024-02-23T22:08:42.673Z,99262.13
2024-02-23T22:14:04.913Z,99263.34
2024-02-23T22:19:27.122Z,99260.66
2024-02-23T22:24:49.365Z,99263.28
2024-02-23T22:30:13.862Z,99271.72
2024-02-23T22:35:35.860Z,99260.44
2024-02-23T22:40:57.765Z,99259.66
2024-02-23T22:46:19.633Z,99264.44
2024-02-23T22:51:43.732Z,99270.00
2024-02-23T22:57:05.959Z,99275.03
2024-02-23T23:02:28.341Z,99266.75
2024-02-23T23:07:50.314Z,99279.00
2024-02-23T23:13:12.416Z,99274.31
2024-02-23T23:18:34.477Z,99262.44
2024-02-23T23:23:56.417Z,99270.78
2024-02-23T23:29:18.336Z,99274.44
2024-02-23T23:34:43.271Z,99272.53
2024-02-23T23:40:05.610Z,99286.44
2024-02-23T23:45:27.528Z,99287.56
2024-02-23T23:50:49.526Z,99291.22
2024-02-23T23:56:14.536Z,99298.72
